sensor_id;sensor_type;location;lat;lon;timestamp;P1;durP1;ratioP1;P2;durP2;ratioP2
40595;SDS011;26304;48.794;9.820;2024-01-06T00:01:41;3.08;;;2.78;;
40595;SDS011;26304;48.794;9.820;2024-01-06T00:04:04;2.88;;;2.67;;
40595;SDS011;26304;48.794;9.820;2024-01-06T00:06:27;2.97;;;2.78;;
40595;SDS011;26304;48.794;9.820;2024-01-06T00:08:50;2.88;;;2.67;;
40595;SDS011;26304;48.794;9.820;2024-01-06T00:11:14;2.95;;;2.63;;
40595;SDS011;26304;48.794;9.820;2024-01-06T00:13:37;2.88;;;2.67;;
40595;SDS011;26304;48.794;9.820;2024-01-06T00:16:00;2.78;;;2.50;;
40595;SDS011;26304;48.794;9.820;2024-01-06T00:18:22;2.75;;;2.50;;
40595;SDS011;26304;48.794;9.820;2024-01-06T00:20:46;2.58;;;2.38;;
40595;SDS011;26304;48.794;9.820;2024-01-06T00:23:09;2.90;;;2.70;;
40595;SDS011;26304;48.794;9.820;2024-01-06T00:25:31;3.47;;;2.78;;
40595;SDS011;26304;48.794;9.820;2024-01-06T00:27:54;2.80;;;2.60;;
40595;SDS011;26304;48.794;9.820;2024-01-06T00:30:16;2.70;;;2.50;;
40595;SDS011;26304;48.794;9.820;2024-01-06T00:32:39;2.67;;;2.47;;
40595;SDS011;26304;48.794;9.820;2024-01-06T00:35:01;2.25;;;2.08;;
40595;SDS011;26304;48.794;9.820;2024-01-06T00:37:25;2.17;;;2.08;;
40595;SDS011;26304;48.794;9.820;2024-01-06T00:39:48;2.50;;;2.30;;
40595;SDS011;26304;48.794;9.820;2024-01-06T00:42:10;2.60;;;2.40;;
40595;SDS011;26304;48.794;9.820;2024-01-06T00:44:33;3.50;;;2.80;;
40595;SDS011;26304;48.794;9.820;2024-01-06T00:46:56;2.60;;;2.40;;
40595;SDS011;26304;48.794;9.820;2024-01-06T00:49:19;2.65;;;2.45;;
40595;SDS011;26304;48.794;9.820;2024-01-06T00:51:42;2.50;;;2.30;;
40595;SDS011;26304;48.794;9.820;2024-01-06T00:54:05;2.70;;;2.50;;
40595;SDS011;26304;48.794;9.820;2024-01-06T00:56:28;2.30;;;2.10;;
40595;SDS011;26304;48.794;9.820;2024-01-06T00:58:51;2.70;;;2.50;;
40595;SDS011;26304;48.794;9.820;2024-01-06T01:01:13;2.92;;;2.63;;
40595;SDS011;26304;48.794;9.820;2024-01-06T01:03:36;2.80;;;2.60;;
40595;SDS011;26304;48.794;9.820;2024-01-06T01:05:58;2.40;;;2.20;;
40595;SDS011;26304;48.794;9.820;2024-01-06T01:08:21;2.40;;;2.20;;
40595;SDS011;26304;48.794;9.820;2024-01-06T01:10:45;2.50;;;2.30;;
40595;SDS011;26304;48.794;9.820;2024-01-06T01:13:07;2.30;;;2.20;;
40595;SDS011;26304;48.794;9.820;2024-01-06T01:15:30;2.70;;;2.50;;
40595;SDS011;26304;48.794;9.820;2024-01-06T01:17:52;2.40;;;2.20;;
40595;SDS011;26304;48.794;9.820;2024-01-06T01:20:15;3.58;;;2.63;;
40595;SDS011;26304;48.794;9.820;2024-01-06T01:22:37;2.88;;;2.25;;
40595;SDS011;26304;48.794;9.820;2024-01-06T01:25:00;2.40;;;2.20;;
40595;SDS011;26304;48.794;9.820;2024-01-06T01:27:27;2.80;;;2.60;;
40595;SDS011;26304;48.794;9.820;2024-01-06T01:29:50;3.13;;;2.45;;
40595;SDS011;26304;48.794;9.820;2024-01-06T01:32:13;2.10;;;2.00;;
40595;SDS011;26304;48.794;9.820;2024-01-06T01:34:36;2.42;;;2.22;;
40595;SDS011;26304;48.794;9.820;2024-01-06T01:36:59;2.47;;;2.28;;
40595;SDS011;26304;48.794;9.820;2024-01-06T01:39:21;2.40;;;2.20;;
40595;SDS011;26304;48.794;9.820;2024-01-06T01:41:44;2.20;;;2.10;;
40595;SDS011;26304;48.794;9.820;2024-01-06T01:44:08;2.58;;;2.38;;
40595;SDS011;26304;48.794;9.820;2024-01-06T01:46:30;2.83;;;2.42;;
40595;SDS011;26304;48.794;9.820;2024-01-06T01:48:53;2.45;;;2.25;;
40595;SDS011;26304;48.794;9.820;2024-01-06T01:51:16;3.00;;;2.70;;
40595;SDS011;26304;48.794;9.820;2024-01-06T01:53:40;2.30;;;2.10;;
40595;SDS011;26304;48.794;9.820;2024-01-06T01:56:03;2.58;;;2.17;;
40595;SDS011;26304;48.794;9.820;2024-01-06T01:58:26;2.55;;;2.35;;
40595;SDS011;26304;48.794;9.820;2024-01-06T02:00:50;2.25;;;2.05;;
40595;SDS011;26304;48.794;9.820;2024-01-06T02:03:13;2.45;;;2.17;;
40595;SDS011;26304;48.794;9.820;2024-01-06T02:05:36;3.03;;;2.50;;
40595;SDS011;26304;48.794;9.820;2024-01-06T02:07:58;2.85;;;2.65;;
40595;SDS011;26304;48.794;9.820;2024-01-06T02:10:21;2.58;;;2.30;;
40595;SDS011;26304;48.794;9.820;2024-01-06T02:12:44;2.00;;;1.90;;
40595;SDS011;26304;48.794;9.820;2024-01-06T02:15:06;2.30;;;2.08;;
40595;SDS011;26304;48.794;9.820;2024-01-06T02:17:31;2.35;;;2.20;;
40595;SDS011;26304;48.794;9.820;2024-01-06T02:19:53;2.30;;;2.10;;
40595;SDS011;26304;48.794;9.820;2024-01-06T02:22:18;2.00;;;1.90;;
40595;SDS011;26304;48.794;9.820;2024-01-06T02:24:41;2.45;;;2.10;;
40595;SDS011;26304;48.794;9.820;2024-01-06T02:27:04;2.30;;;2.10;;
40595;SDS011;26304;48.794;9.820;2024-01-06T02:29:26;2.30;;;1.95;;
40595;SDS011;26304;48.794;9.820;2024-01-06T02:31:48;2.22;;;2.10;;
40595;SDS011;26304;48.794;9.820;2024-01-06T02:34:11;2.10;;;1.90;;
40595;SDS011;26304;48.794;9.820;2024-01-06T02:36:34;2.35;;;2.15;;
40595;SDS011;26304;48.794;9.820;2024-01-06T02:38:57;2.55;;;2.35;;
40595;SDS011;26304;48.794;9.820;2024-01-06T02:41:20;1.98;;;1.88;;
40595;SDS011;26304;48.794;9.820;2024-01-06T02:43:42;2.20;;;2.00;;
40595;SDS011;26304;48.794;9.820;2024-01-06T02:46:06;2.13;;;1.92;;
40595;SDS011;26304;48.794;9.820;2024-01-06T02:48:29;2.42;;;2.08;;
40595;SDS011;26304;48.794;9.820;2024-01-06T02:50:51;2.00;;;1.90;;
40595;SDS011;26304;48.794;9.820;2024-01-06T02:53:14;2.03;;;1.83;;
40595;SDS011;26304;48.794;9.820;2024-01-06T02:55:38;2.58;;;2.38;;
40595;SDS011;26304;48.794;9.820;2024-01-06T02:58:00;1.98;;;1.75;;
40595;SDS011;26304;48.794;9.820;2024-01-06T03:00:23;2.08;;;1.88;;
40595;SDS011;26304;48.794;9.820;2024-01-06T03:02:46;2.00;;;1.90;;
40595;SDS011;26304;48.794;9.820;2024-01-06T03:05:09;2.30;;;2.20;;
40595;SDS011;26304;48.794;9.820;2024-01-06T03:07:31;1.70;;;1.60;;
40595;SDS011;26304;48.794;9.820;2024-01-06T03:09:54;2.22;;;2.03;;
40595;SDS011;26304;48.794;9.820;2024-01-06T03:12:18;2.80;;;2.15;;
40595;SDS011;26304;48.794;9.820;2024-01-06T03:14:40;2.20;;;2.00;;
40595;SDS011;26304;48.794;9.820;2024-01-06T03:17:03;2.28;;;1.70;;
40595;SDS011;26304;48.794;9.820;2024-01-06T03:19:26;1.83;;;1.73;;
40595;SDS011;26304;48.794;9.820;2024-01-06T03:21:48;2.15;;;1.80;;
40595;SDS011;26304;48.794;9.820;2024-01-06T03:24:11;2.17;;;1.98;;
40595;SDS011;26304;48.794;9.820;2024-01-06T03:26:34;2.20;;;2.00;;
40595;SDS011;26304;48.794;9.820;2024-01-06T03:28:57;2.33;;;1.92;;
40595;SDS011;26304;48.794;9.820;2024-01-06T03:31:20;2.47;;;1.95;;
40595;SDS011;26304;48.794;9.820;2024-01-06T03:33:43;2.38;;;2.00;;
40595;SDS011;26304;48.794;9.820;2024-01-06T03:36:06;4.00;;;2.15;;
40595;SDS011;26304;48.794;9.820;2024-01-06T03:38:29;2.08;;;1.88;;
40595;SDS011;26304;48.794;9.820;2024-01-06T03:40:52;2.65;;;2.03;;
40595;SDS011;26304;48.794;9.820;2024-01-06T03:43:14;1.75;;;1.65;;
40595;SDS011;26304;48.794;9.820;2024-01-06T03:45:38;1.80;;;1.70;;
40595;SDS011;26304;48.794;9.820;2024-01-06T03:48:01;2.13;;;1.92;;
40595;SDS011;26304;48.794;9.820;2024-01-06T03:50:23;1.65;;;1.55;;
40595;SDS011;26304;48.794;9.820;2024-01-06T03:52:45;1.88;;;1.70;;
40595;SDS011;26304;48.794;9.820;2024-01-06T03:55:09;1.60;;;1.50;;
40595;SDS011;26304;48.794;9.820;2024-01-06T03:57:32;1.63;;;1.52;;
40595;SDS011;26304;48.794;9.820;2024-01-06T03:59:55;2.53;;;1.90;;
40595;SDS011;26304;48.794;9.820;2024-01-06T04:02:18;2.90;;;2.03;;
40595;SDS011;26304;48.794;9.820;2024-01-06T04:04:41;1.60;;;1.50;;
40595;SDS011;26304;48.794;9.820;2024-01-06T04:07:03;1.50;;;1.40;;
40595;SDS011;26304;48.794;9.820;2024-01-06T04:09:27;2.47;;;1.90;;
40595;SDS011;26304;48.794;9.820;2024-01-06T04:11:50;1.63;;;1.48;;
40595;SDS011;26304;48.794;9.820;2024-01-06T04:14:12;2.05;;;1.73;;
40595;SDS011;26304;48.794;9.820;2024-01-06T04:16:35;1.52;;;1.40;;
40595;SDS011;26304;48.794;9.820;2024-01-06T04:18:59;1.63;;;1.40;;
40595;SDS011;26304;48.794;9.820;2024-01-06T04:21:21;1.70;;;1.60;;
40595;SDS011;26304;48.794;9.820;2024-01-06T04:23:44;1.95;;;1.80;;
40595;SDS011;26304;48.794;9.820;2024-01-06T04:26:06;1.55;;;1.45;;
40595;SDS011;26304;48.794;9.820;2024-01-06T04:28:29;1.60;;;1.50;;
40595;SDS011;26304;48.794;9.820;2024-01-06T04:30:52;1.60;;;1.50;;
40595;SDS011;26304;48.794;9.820;2024-01-06T04:33:14;1.67;;;1.58;;
40595;SDS011;26304;48.794;9.820;2024-01-06T04:35:38;1.55;;;1.45;;
40595;SDS011;26304;48.794;9.820;2024-01-06T04:38:01;1.60;;;1.50;;
40595;SDS011;26304;48.794;9.820;2024-01-06T04:40:23;1.83;;;1.73;;
40595;SDS011;26304;48.794;9.820;2024-01-06T04:42:46;2.35;;;1.92;;
40595;SDS011;26304;48.794;9.820;2024-01-06T04:45:09;1.80;;;1.70;;
40595;SDS011;26304;48.794;9.820;2024-01-06T04:47:31;2.00;;;1.50;;
40595;SDS011;26304;48.794;9.820;2024-01-06T04:49:54;1.83;;;1.70;;
40595;SDS011;26304;48.794;9.820;2024-01-06T04:52:18;1.38;;;1.23;;
40595;SDS011;26304;48.794;9.820;2024-01-06T04:54:40;1.60;;;1.50;;
40595;SDS011;26304;48.794;9.820;2024-01-06T04:57:03;1.52;;;1.42;;
40595;SDS011;26304;48.794;9.820;2024-01-06T04:59:26;1.52;;;1.42;;
40595;SDS011;26304;48.794;9.820;2024-01-06T05:01:48;1.60;;;1.50;;
40595;SDS011;26304;48.794;9.820;2024-01-06T05:04:12;2.00;;;1.60;;
40595;SDS011;26304;48.794;9.820;2024-01-06T05:06:35;1.75;;;1.50;;
40595;SDS011;26304;48.794;9.820;2024-01-06T05:08:59;1.67;;;1.52;;
40595;SDS011;26304;48.794;9.820;2024-01-06T05:11:21;1.17;;;1.10;;
40595;SDS011;26304;48.794;9.820;2024-01-06T05:13:44;1.73;;;1.63;;
40595;SDS011;26304;48.794;9.820;2024-01-06T05:16:07;1.52;;;1.42;;
40595;SDS011;26304;48.794;9.820;2024-01-06T05:18:30;2.05;;;1.55;;
40595;SDS011;26304;48.794;9.820;2024-01-06T05:20:52;1.88;;;1.60;;
40595;SDS011;26304;48.794;9.820;2024-01-06T05:23:15;2.03;;;1.65;;
40595;SDS011;26304;48.794;9.820;2024-01-06T05:25:39;1.80;;;1.70;;
40595;SDS011;26304;48.794;9.820;2024-01-06T05:28:02;1.77;;;1.55;;
40595;SDS011;26304;48.794;9.820;2024-01-06T05:30:25;1.63;;;1.45;;
40595;SDS011;26304;48.794;9.820;2024-01-06T05:32:47;1.50;;;1.40;;
40595;SDS011;26304;48.794;9.820;2024-01-06T05:35:10;2.38;;;1.70;;
40595;SDS011;26304;48.794;9.820;2024-01-06T05:37:32;1.60;;;1.40;;
40595;SDS011;26304;48.794;9.820;2024-01-06T05:39:55;1.20;;;1.10;;
40595;SDS011;26304;48.794;9.820;2024-01-06T05:42:23;2.55;;;1.60;;
40595;SDS011;26304;48.794;9.820;2024-01-06T05:44:46;1.95;;;1.65;;
40595;SDS011;26304;48.794;9.820;2024-01-06T05:47:08;2.08;;;1.35;;
40595;SDS011;26304;48.794;9.820;2024-01-06T05:49:31;2.67;;;1.10;;
40595;SDS011;26304;48.794;9.820;2024-01-06T05:51:53;2.03;;;1.30;;
40595;SDS011;26304;48.794;9.820;2024-01-06T05:54:16;1.35;;;1.23;;
40595;SDS011;26304;48.794;9.820;2024-01-06T05:56:38;1.75;;;1.25;;
40595;SDS011;26304;48.794;9.820;2024-01-06T05:59:02;2.97;;;1.13;;
40595;SDS011;26304;48.794;9.820;2024-01-06T06:01:25;1.80;;;1.00;;
40595;SDS011;26304;48.794;9.820;2024-01-06T06:03:48;2.05;;;1.42;;
40595;SDS011;26304;48.794;9.820;2024-01-06T06:06:11;1.65;;;1.17;;
40595;SDS011;26304;48.794;9.820;2024-01-06T06:08:33;1.20;;;1.10;;
40595;SDS011;26304;48.794;9.820;2024-01-06T06:10:56;1.42;;;1.13;;
40595;SDS011;26304;48.794;9.820;2024-01-06T06:13:22;1.85;;;1.38;;
40595;SDS011;26304;48.794;9.820;2024-01-06T06:15:46;3.42;;;1.20;;
40595;SDS011;26304;48.794;9.820;2024-01-06T06:18:08;1.25;;;1.02;;
40595;SDS011;26304;48.794;9.820;2024-01-06T06:20:31;4.35;;;1.48;;
40595;SDS011;26304;48.794;9.820;2024-01-06T06:22:53;3.70;;;1.50;;
40595;SDS011;26304;48.794;9.820;2024-01-06T06:25:16;2.42;;;1.48;;
40595;SDS011;26304;48.794;9.820;2024-01-06T06:27:38;2.22;;;1.30;;
40595;SDS011;26304;48.794;9.820;2024-01-06T06:30:01;2.80;;;1.40;;
40595;SDS011;26304;48.794;9.820;2024-01-06T06:32:25;1.88;;;1.30;;
40595;SDS011;26304;48.794;9.820;2024-01-06T06:34:48;1.52;;;1.13;;
40595;SDS011;26304;48.794;9.820;2024-01-06T06:37:10;3.15;;;1.15;;
40595;SDS011;26304;48.794;9.820;2024-01-06T06:39:33;1.58;;;1.20;;
40595;SDS011;26304;48.794;9.820;2024-01-06T06:41:56;3.05;;;1.30;;
40595;SDS011;26304;48.794;9.820;2024-01-06T06:44:18;1.80;;;1.05;;
40595;SDS011;26304;48.794;9.820;2024-01-06T06:46:42;1.90;;;1.23;;
40595;SDS011;26304;48.794;9.820;2024-01-06T06:49:06;2.78;;;1.30;;
40595;SDS011;26304;48.794;9.820;2024-01-06T06:51:28;1.20;;;1.10;;
40595;SDS011;26304;48.794;9.820;2024-01-06T06:53:51;1.13;;;1.02;;
40595;SDS011;26304;48.794;9.820;2024-01-06T06:56:13;2.42;;;1.00;;
40595;SDS011;26304;48.794;9.820;2024-01-06T06:58:38;1.17;;;1.08;;
40595;SDS011;26304;48.794;9.820;2024-01-06T07:00:59;2.42;;;1.10;;
40595;SDS011;26304;48.794;9.820;2024-01-06T07:03:22;2.17;;;1.00;;
40595;SDS011;26304;48.794;9.820;2024-01-06T07:05:46;1.10;;;0.90;;
40595;SDS011;26304;48.794;9.820;2024-01-06T07:08:08;0.82;;;0.82;;
40595;SDS011;26304;48.794;9.820;2024-01-06T07:10:31;1.45;;;1.00;;
40595;SDS011;26304;48.794;9.820;2024-01-06T07:12:53;1.25;;;1.05;;
40595;SDS011;26304;48.794;9.820;2024-01-06T07:15:15;1.52;;;1.10;;
40595;SDS011;26304;48.794;9.820;2024-01-06T07:17:37;1.42;;;1.10;;
40595;SDS011;26304;48.794;9.820;2024-01-06T07:20:00;0.90;;;0.85;;
40595;SDS011;26304;48.794;9.820;2024-01-06T07:22:24;1.20;;;1.10;;
40595;SDS011;26304;48.794;9.820;2024-01-06T07:24:46;1.23;;;1.10;;
40595;SDS011;26304;48.794;9.820;2024-01-06T07:27:09;1.27;;;1.00;;
40595;SDS011;26304;48.794;9.820;2024-01-06T07:29:31;1.25;;;0.90;;
40595;SDS011;26304;48.794;9.820;2024-01-06T07:31:54;1.23;;;1.13;;
40595;SDS011;26304;48.794;9.820;2024-01-06T07:34:17;1.30;;;0.90;;
40595;SDS011;26304;48.794;9.820;2024-01-06T07:36:40;1.38;;;0.98;;
40595;SDS011;26304;48.794;9.820;2024-01-06T07:39:04;2.15;;;1.27;;
40595;SDS011;26304;48.794;9.820;2024-01-06T07:41:26;1.70;;;1.27;;
40595;SDS011;26304;48.794;9.820;2024-01-06T07:43:49;1.85;;;1.25;;
40595;SDS011;26304;48.794;9.820;2024-01-06T07:46:11;1.75;;;1.27;;
40595;SDS011;26304;48.794;9.820;2024-01-06T07:48:34;2.33;;;1.40;;
40595;SDS011;26304;48.794;9.820;2024-01-06T07:50:57;1.65;;;1.30;;
40595;SDS011;26304;48.794;9.820;2024-01-06T07:53:19;2.95;;;1.60;;
40595;SDS011;26304;48.794;9.820;2024-01-06T07:55:44;1.73;;;1.30;;
40595;SDS011;26304;48.794;9.820;2024-01-06T07:58:06;2.53;;;1.60;;
40595;SDS011;26304;48.794;9.820;2024-01-06T08:00:29;3.95;;;1.23;;
40595;SDS011;26304;48.794;9.820;2024-01-06T08:02:51;1.30;;;1.20;;
40595;SDS011;26304;48.794;9.820;2024-01-06T08:05:14;1.95;;;1.15;;
40595;SDS011;26304;48.794;9.820;2024-01-06T08:07:37;3.17;;;1.20;;
40595;SDS011;26304;48.794;9.820;2024-01-06T08:09:59;1.55;;;1.20;;
40595;SDS011;26304;48.794;9.820;2024-01-06T08:12:27;1.42;;;1.17;;
40595;SDS011;26304;48.794;9.820;2024-01-06T08:14:49;1.20;;;1.10;;
40595;SDS011;26304;48.794;9.820;2024-01-06T08:17:12;2.50;;;1.20;;
40595;SDS011;26304;48.794;9.820;2024-01-06T08:19:35;1.65;;;1.40;;
40595;SDS011;26304;48.794;9.820;2024-01-06T08:21:57;1.38;;;1.27;;
40595;SDS011;26304;48.794;9.820;2024-01-06T08:24:20;1.58;;;1.15;;
40595;SDS011;26304;48.794;9.820;2024-01-06T08:26:42;2.13;;;1.38;;
40595;SDS011;26304;48.794;9.820;2024-01-06T08:29:07;1.83;;;1.40;;
40595;SDS011;26304;48.794;9.820;2024-01-06T08:31:29;1.33;;;1.23;;
40595;SDS011;26304;48.794;9.820;2024-01-06T08:33:52;1.75;;;1.38;;
40595;SDS011;26304;48.794;9.820;2024-01-06T08:36:14;1.88;;;1.23;;
40595;SDS011;26304;48.794;9.820;2024-01-06T08:38:37;1.40;;;1.17;;
40595;SDS011;26304;48.794;9.820;2024-01-06T08:41:00;2.55;;;1.40;;
40595;SDS011;26304;48.794;9.820;2024-01-06T08:43:23;1.73;;;1.40;;
40595;SDS011;26304;48.794;9.820;2024-01-06T08:45:47;3.50;;;1.60;;
40595;SDS011;26304;48.794;9.820;2024-01-06T08:48:11;1.40;;;1.30;;
40595;SDS011;26304;48.794;9.820;2024-01-06T08:50:34;2.10;;;1.50;;
40595;SDS011;26304;48.794;9.820;2024-01-06T08:52:57;1.75;;;1.23;;
40595;SDS011;26304;48.794;9.820;2024-01-06T08:55:19;1.38;;;1.27;;
40595;SDS011;26304;48.794;9.820;2024-01-06T08:57:42;1.55;;;1.20;;
40595;SDS011;26304;48.794;9.820;2024-01-06T09:00:05;2.15;;;1.50;;
40595;SDS011;26304;48.794;9.820;2024-01-06T09:02:31;1.63;;;1.30;;
40595;SDS011;26304;48.794;9.820;2024-01-06T09:04:53;1.85;;;1.50;;
40595;SDS011;26304;48.794;9.820;2024-01-06T09:07:16;1.50;;;1.30;;
40595;SDS011;26304;48.794;9.820;2024-01-06T09:09:39;1.52;;;1.27;;
40595;SDS011;26304;48.794;9.820;2024-01-06T09:12:01;1.80;;;1.38;;
40595;SDS011;26304;48.794;9.820;2024-01-06T09:14:24;1.33;;;1.23;;
40595;SDS011;26304;48.794;9.820;2024-01-06T09:16:47;1.30;;;1.10;;
40595;SDS011;26304;48.794;9.820;2024-01-06T09:19:11;1.73;;;1.40;;
40595;SDS011;26304;48.794;9.820;2024-01-06T09:21:33;1.83;;;1.30;;
40595;SDS011;26304;48.794;9.820;2024-01-06T09:23:56;1.75;;;1.20;;
40595;SDS011;26304;48.794;9.820;2024-01-06T09:26:19;3.38;;;1.80;;
40595;SDS011;26304;48.794;9.820;2024-01-06T09:28:41;1.98;;;1.30;;
40595;SDS011;26304;48.794;9.820;2024-01-06T09:31:04;1.98;;;1.55;;
40595;SDS011;26304;48.794;9.820;2024-01-06T09:33:26;1.88;;;1.40;;
40595;SDS011;26304;48.794;9.820;2024-01-06T09:35:50;1.65;;;1.55;;
40595;SDS011;26304;48.794;9.820;2024-01-06T09:38:13;1.17;;;1.08;;
40595;SDS011;26304;48.794;9.820;2024-01-06T09:40:35;1.80;;;1.55;;
40595;SDS011;26304;48.794;9.820;2024-01-06T09:43:04;1.90;;;1.60;;
40595;SDS011;26304;48.794;9.820;2024-01-06T09:45:27;1.50;;;1.38;;
40595;SDS011;26304;48.794;9.820;2024-01-06T09:47:50;1.38;;;1.27;;
40595;SDS011;26304;48.794;9.820;2024-01-06T09:50:13;1.42;;;1.33;;
40595;SDS011;26304;48.794;9.820;2024-01-06T09:52:41;2.17;;;1.58;;
40595;SDS011;26304;48.794;9.820;2024-01-06T09:55:04;2.22;;;1.80;;
40595;SDS011;26304;48.794;9.820;2024-01-06T09:57:30;1.80;;;1.38;;
40595;SDS011;26304;48.794;9.820;2024-01-06T09:59:55;1.45;;;1.35;;
40595;SDS011;26304;48.794;9.820;2024-01-06T10:02:18;2.40;;;1.70;;
40595;SDS011;26304;48.794;9.820;2024-01-06T10:04:43;1.40;;;1.30;;
40595;SDS011;26304;48.794;9.820;2024-01-06T10:07:06;1.50;;;1.40;;
40595;SDS011;26304;48.794;9.820;2024-01-06T10:09:30;1.67;;;1.30;;
40595;SDS011;26304;48.794;9.820;2024-01-06T10:11:54;1.58;;;1.30;;
40595;SDS011;26304;48.794;9.820;2024-01-06T10:14:17;1.80;;;1.38;;
40595;SDS011;26304;48.794;9.820;2024-01-06T10:16:40;1.35;;;1.25;;
40595;SDS011;26304;48.794;9.820;2024-01-06T10:19:03;1.45;;;1.35;;
40595;SDS011;26304;48.794;9.820;2024-01-06T10:21:26;2.47;;;1.55;;
40595;SDS011;26304;48.794;9.820;2024-01-06T10:23:48;1.80;;;1.30;;
40595;SDS011;26304;48.794;9.820;2024-01-06T10:26:13;2.28;;;1.48;;
40595;SDS011;26304;48.794;9.820;2024-01-06T10:28:35;1.75;;;1.30;;
40595;SDS011;26304;48.794;9.820;2024-01-06T10:30:58;1.42;;;1.33;;
40595;SDS011;26304;48.794;9.820;2024-01-06T10:33:22;1.65;;;1.30;;
40595;SDS011;26304;48.794;9.820;2024-01-06T10:35:45;1.50;;;1.40;;
40595;SDS011;26304;48.794;9.820;2024-01-06T10:38:08;1.77;;;1.30;;
40595;SDS011;26304;48.794;9.820;2024-01-06T10:40:32;1.40;;;1.30;;
40595;SDS011;26304;48.794;9.820;2024-01-06T10:42:56;1.83;;;1.30;;
40595;SDS011;26304;48.794;9.820;2024-01-06T10:45:19;1.50;;;1.40;;
40595;SDS011;26304;48.794;9.820;2024-01-06T10:47:43;1.88;;;1.63;;
40595;SDS011;26304;48.794;9.820;2024-01-06T10:50:06;2.25;;;1.33;;
40595;SDS011;26304;48.794;9.820;2024-01-06T10:52:30;1.85;;;1.40;;
40595;SDS011;26304;48.794;9.820;2024-01-06T10:54:53;2.40;;;1.75;;
40595;SDS011;26304;48.794;9.820;2024-01-06T10:57:17;1.60;;;1.50;;
40595;SDS011;26304;48.794;9.820;2024-01-06T10:59:43;2.13;;;1.42;;
40595;SDS011;26304;48.794;9.820;2024-01-06T11:02:07;1.52;;;1.38;;
40595;SDS011;26304;48.794;9.820;2024-01-06T11:04:32;1.52;;;1.40;;
40595;SDS011;26304;48.794;9.820;2024-01-06T11:06:55;2.00;;;1.60;;
40595;SDS011;26304;48.794;9.820;2024-01-06T11:09:19;1.33;;;1.23;;
40595;SDS011;26304;48.794;9.820;2024-01-06T11:11:44;1.55;;;1.30;;
40595;SDS011;26304;48.794;9.820;2024-01-06T11:14:20;1.33;;;1.20;;
40595;SDS011;26304;48.794;9.820;2024-01-06T11:16:46;1.85;;;1.20;;
40595;SDS011;26304;48.794;9.820;2024-01-06T11:22:17;2.17;;;1.38;;
40595;SDS011;26304;48.794;9.820;2024-01-06T11:24:41;1.88;;;1.58;;
40595;SDS011;26304;48.794;9.820;2024-01-06T11:27:09;1.27;;;1.17;;
40595;SDS011;26304;48.794;9.820;2024-01-06T11:29:41;1.45;;;1.33;;
40595;SDS011;26304;48.794;9.820;2024-01-06T11:32:20;1.60;;;1.50;;
40595;SDS011;26304;48.794;9.820;2024-01-06T11:34:49;1.70;;;1.60;;
40595;SDS011;26304;48.794;9.820;2024-01-06T11:37:14;2.55;;;1.60;;
40595;SDS011;26304;48.794;9.820;2024-01-06T11:39:40;1.63;;;1.40;;
40595;SDS011;26304;48.794;9.820;2024-01-06T11:42:03;2.08;;;1.70;;
40595;SDS011;26304;48.794;9.820;2024-01-06T11:44:27;5.15;;;2.03;;
40595;SDS011;26304;48.794;9.820;2024-01-06T11:46:50;6.53;;;2.00;;
40595;SDS011;26304;48.794;9.820;2024-01-06T11:49:17;2.97;;;2.10;;
40595;SDS011;26304;48.794;9.820;2024-01-06T11:51:43;2.65;;;1.80;;
40595;SDS011;26304;48.794;9.820;2024-01-06T11:54:05;2.75;;;1.60;;
40595;SDS011;26304;48.794;9.820;2024-01-06T11:56:28;1.60;;;1.45;;
40595;SDS011;26304;48.794;9.820;2024-01-06T11:58:51;1.85;;;1.65;;
40595;SDS011;26304;48.794;9.820;2024-01-06T12:01:13;3.13;;;2.10;;
40595;SDS011;26304;48.794;9.820;2024-01-06T12:03:36;3.10;;;1.83;;
40595;SDS011;26304;48.794;9.820;2024-01-06T12:06:00;1.60;;;1.50;;
40595;SDS011;26304;48.794;9.820;2024-01-06T12:08:23;3.47;;;1.85;;
40595;SDS011;26304;48.794;9.820;2024-01-06T12:10:46;2.00;;;1.90;;
40595;SDS011;26304;48.794;9.820;2024-01-06T12:13:08;2.00;;;1.90;;
40595;SDS011;26304;48.794;9.820;2024-01-06T12:15:35;2.00;;;1.90;;
40595;SDS011;26304;48.794;9.820;2024-01-06T12:18:02;2.30;;;2.10;;
40595;SDS011;26304;48.794;9.820;2024-01-06T12:20:26;1.88;;;1.77;;
40595;SDS011;26304;48.794;9.820;2024-01-06T12:22:51;2.47;;;1.73;;
40595;SDS011;26304;48.794;9.820;2024-01-06T12:25:14;2.20;;;1.58;;
40595;SDS011;26304;48.794;9.820;2024-01-06T12:27:41;1.95;;;1.85;;
40595;SDS011;26304;48.794;9.820;2024-01-06T12:30:05;2.17;;;2.08;;
40595;SDS011;26304;48.794;9.820;2024-01-06T12:32:36;1.75;;;1.65;;
40595;SDS011;26304;48.794;9.820;2024-01-06T12:35:00;1.67;;;1.58;;
40595;SDS011;26304;48.794;9.820;2024-01-06T12:37:22;2.22;;;2.00;;
40595;SDS011;26304;48.794;9.820;2024-01-06T12:39:46;1.70;;;1.60;;
40595;SDS011;26304;48.794;9.820;2024-01-06T12:42:09;2.35;;;2.00;;
40595;SDS011;26304;48.794;9.820;2024-01-06T12:44:32;1.83;;;1.55;;
40595;SDS011;26304;48.794;9.820;2024-01-06T12:46:57;2.08;;;1.52;;
40595;SDS011;26304;48.794;9.820;2024-01-06T12:49:20;1.50;;;1.40;;
40595;SDS011;26304;48.794;9.820;2024-01-06T12:51:42;3.08;;;1.63;;
40595;SDS011;26304;48.794;9.820;2024-01-06T12:54:05;2.65;;;1.23;;
40595;SDS011;26304;48.794;9.820;2024-01-06T12:56:29;1.48;;;1.38;;
40595;SDS011;26304;48.794;9.820;2024-01-06T12:58:52;2.45;;;1.48;;
40595;SDS011;26304;48.794;9.820;2024-01-06T13:01:14;3.63;;;1.63;;
40595;SDS011;26304;48.794;9.820;2024-01-06T13:03:38;1.45;;;1.30;;
40595;SDS011;26304;48.794;9.820;2024-01-06T13:06:01;2.53;;;1.40;;
40595;SDS011;26304;48.794;9.820;2024-01-06T13:08:24;6.13;;;1.98;;
40595;SDS011;26304;48.794;9.820;2024-01-06T13:10:47;2.42;;;1.60;;
40595;SDS011;26304;48.794;9.820;2024-01-06T13:13:10;2.55;;;1.35;;
40595;SDS011;26304;48.794;9.820;2024-01-06T13:15:32;1.83;;;1.20;;
40595;SDS011;26304;48.794;9.820;2024-01-06T13:17:55;1.67;;;1.33;;
40595;SDS011;26304;48.794;9.820;2024-01-06T13:20:18;2.20;;;1.52;;
40595;SDS011;26304;48.794;9.820;2024-01-06T13:22:40;1.63;;;1.40;;
40595;SDS011;26304;48.794;9.820;2024-01-06T13:25:03;1.50;;;1.38;;
40595;SDS011;26304;48.794;9.820;2024-01-06T13:27:28;3.65;;;1.33;;
40595;SDS011;26304;48.794;9.820;2024-01-06T13:29:52;2.65;;;1.40;;
40595;SDS011;26304;48.794;9.820;2024-01-06T13:32:15;2.50;;;1.30;;
40595;SDS011;26304;48.794;9.820;2024-01-06T13:34:40;2.80;;;1.30;;
40595;SDS011;26304;48.794;9.820;2024-01-06T13:37:02;2.22;;;1.25;;
40595;SDS011;26304;48.794;9.820;2024-01-06T13:39:26;1.35;;;1.25;;
40595;SDS011;26304;48.794;9.820;2024-01-06T13:41:49;1.42;;;1.13;;
40595;SDS011;26304;48.794;9.820;2024-01-06T13:44:12;1.17;;;1.15;;
40595;SDS011;26304;48.794;9.820;2024-01-06T13:46:36;0.93;;;0.93;;
40595;SDS011;26304;48.794;9.820;2024-01-06T13:48:58;1.17;;;1.02;;
40595;SDS011;26304;48.794;9.820;2024-01-06T13:51:23;1.98;;;1.13;;
40595;SDS011;26304;48.794;9.820;2024-01-06T13:53:45;1.88;;;1.05;;
40595;SDS011;26304;48.794;9.820;2024-01-06T13:56:08;1.63;;;1.00;;
40595;SDS011;26304;48.794;9.820;2024-01-06T13:58:31;3.58;;;1.23;;
40595;SDS011;26304;48.794;9.820;2024-01-06T14:00:53;2.13;;;1.08;;
40595;SDS011;26304;48.794;9.820;2024-01-06T14:03:18;1.33;;;1.23;;
40595;SDS011;26304;48.794;9.820;2024-01-06T14:05:40;1.52;;;1.15;;
40595;SDS011;26304;48.794;9.820;2024-01-06T14:08:03;1.42;;;0.98;;
40595;SDS011;26304;48.794;9.820;2024-01-06T14:10:26;1.42;;;1.17;;
40595;SDS011;26304;48.794;9.820;2024-01-06T14:12:50;2.65;;;1.10;;
40595;SDS011;26304;48.794;9.820;2024-01-06T14:15:16;2.05;;;1.05;;
40595;SDS011;26304;48.794;9.820;2024-01-06T14:17:40;1.75;;;1.05;;
40595;SDS011;26304;48.794;9.820;2024-01-06T14:20:11;1.40;;;1.30;;
40595;SDS011;26304;48.794;9.820;2024-01-06T14:22:34;1.20;;;1.00;;
40595;SDS011;26304;48.794;9.820;2024-01-06T14:24:57;0.88;;;0.88;;
40595;SDS011;26304;48.794;9.820;2024-01-06T14:27:19;2.22;;;1.10;;